Share

Goodland, KS

City of Gld Backyard Station (KKSGOODL6) Elev 3714 ft | 39.34 °N, 101.71 °W | Change Station

Current weather conditions updated 11 minutes ago

Clear
Clear
39.7 °F
Feels Like 33 °F
N
11.4
Wind Variable Wind from SSW
Sunrise 6:06 AM
Sunset 7:26 PM
Moon Waning Gibbous

Tomorrow is forecast to be Much Warmer than today.

Pressure 30.17 in
Visibility 10.0 miles
Clouds Clear
Windchill 33 °F
Dew Point 37 °F
Humidity 90%
Rainfall 0.00 in
Snow Depth Not available.
UV 0 out of 16
Pollen 9.40 out of 12
Air Quality Not available.
Flu Activity Sporadic
METAR KGLD 180453Z AUTO 18017KT 10SM CLR 04/03 A3014 RMK AO2 SLP214 T00440028

More Conditions Fewer Conditions

Pressure 30.17 in
Visibility 10.0 miles
Clouds Clear
Windchill 33 °F
Dew Point 37 °F
Humidity 90%
Rainfall 0.00 in
Snow Depth Not available.
UV 0 out of 16
Pollen 9.40 out of 12
Air Quality Not available.
Flu Activity Sporadic
METAR KGLD 180453Z AUTO 18017KT 10SM CLR 04/03 A3014 RMK AO2 SLP214 T00440028

More Conditions Fewer Conditions

10-Day Forecast

Almanac

Astronomy

Apr. 17, 2014 Rise Set
Actual Time 6:06 AM MDT 7:26 PM MDT
Civil Twilight 5:38 AM MDT 7:54 PM MDT
Nautical Twilight 5:05 AM MDT 8:28 PM MDT
Astronomical Twilight 4:30 AM MDT 9:03 PM MDT
Moon 10:13 PM MDT (4/17) 7:40 AM MDT (4/17)
Length of Visible Light 14h 15m
Length of Day
13h 19m
Tomorrow will be 2m 25s longer.
Waning Gibbous, 90% of the Moon is Illuminated
Apr 18
Waning Gibbous
Apr 22
Last Quarter
Apr 29
New
May 6
First Quarter
May 14
Full

Yesterday's Extremes

State Highs State Lows

Community

  • SUNRISE THROUGH THE TREES.
    SUNRISE THROUGH THE TREES.
  • Dog Wood Blossoms
    Dog Wood Blossoms
  • Morning Light
    Morning Light
  • New Day
    New Day
  • Lake Michigan Sunrise
    Lake Michigan Sunrise

WunderPhotos

Upload Photos

1,702,272 photos uploaded!

WunderBlogs® & News

Nearby

Snow Depth

Station Depth Elevation
No new snow has been reported.

Coastal Water Temperatures

Place Temperature
No Stations Reporting

Earthquake Activity

City Distance Mag. Time & Date
No recent earthquake activity has been reported nearby.
Minimum magnitude displayed is 2.5.

Nearby Weather Stations

Station Location Temp. Windchill Dew Point Humidity Wind Precip. Elev Updated Type
City of Gld Backyard Station, Goodland, KS 39.7 °F 33 °F 37 °F 90% SSW  at  11.4 mph - / hr 3714 ft 11:44 PM MDT Normal
Beaver Creek Weather, Goodland, KS 41.0 °F 33 °F 39 °F 94% SSW  at  16.0 mph 0.00 in / hr 3471 ft 11:55 PM MDT Rapid Fire

Show More Stations Show Fewer Stations

What do you think?

We're not finished. Please let us know what you like, what you don't like, and what you are still missing.